createdAt,value
2023-01-17T00:02:25.132Z,96458.00
2023-01-17T00:05:11.054Z,96460.00
2023-01-17T00:07:57.123Z,96462.00
2023-01-17T00:10:27.868Z,96462.00
2023-01-17T00:12:58.738Z,96465.00
2023-01-17T00:15:29.811Z,96462.00
2023-01-17T00:17:58.116Z,96464.00
2023-01-17T00:20:49.545Z,96465.00
2023-01-17T00:23:40.091Z,96461.00
2023-01-17T00:26:14.671Z,96466.00
2023-01-17T00:28:43.838Z,96468.00
2023-01-17T00:31:14.118Z,96468.00
2023-01-17T00:33:41.847Z,96463.00
2023-01-17T00:36:10.355Z,96475.00
2023-01-17T00:38:39.983Z,96472.00
2023-01-17T00:41:13.885Z,96471.00
2023-01-17T00:44:00.643Z,96485.00
2023-01-17T00:46:46.681Z,96478.00
2023-01-17T00:49:33.234Z,96491.00
2023-01-17T00:52:20.073Z,96498.00
2023-01-17T00:55:05.935Z,96494.00
2023-01-17T00:57:52.129Z,96490.00
2023-01-17T01:00:38.653Z,96487.00
2023-01-17T01:03:29.821Z,96485.00
2023-01-17T01:06:16.058Z,96495.00
2023-01-17T01:09:02.154Z,96496.00
2023-01-17T01:11:48.430Z,96499.00
2023-01-17T01:14:34.828Z,96495.00
2023-01-17T01:17:21.216Z,96502.00
2023-01-17T01:20:10.323Z,96491.00
2023-01-17T01:22:56.161Z,96504.00
2023-01-17T01:25:42.625Z,96502.00
2023-01-17T01:28:33.495Z,96509.00
2023-01-17T01:31:21.850Z,96508.00
2023-01-17T01:33:51.978Z,96521.00
2023-01-17T01:36:19.488Z,96522.00
2023-01-17T01:38:46.943Z,96529.00
2023-01-17T01:41:14.660Z,96529.00
2023-01-17T01:43:54.602Z,96535.00
2023-01-17T01:46:39.456Z,96526.00
2023-01-17T01:49:18.850Z,96532.00
2023-01-17T01:51:53.453Z,96539.00
2023-01-17T01:54:58.681Z,96540.00
2023-01-17T01:57:32.789Z,96533.00
2023-01-17T02:00:08.516Z,96539.00
2023-01-17T02:02:39.903Z,96538.00
2023-01-17T02:05:08.481Z,96548.00
2023-01-17T02:07:46.481Z,96547.00
2023-01-17T02:10:14.008Z,96542.00
2023-01-17T02:12:42.549Z,96555.00
2023-01-17T02:15:10.778Z,96559.00
2023-01-17T02:18:21.077Z,96556.00
2023-01-17T02:20:58.912Z,96556.00
2023-01-17T02:24:07.993Z,96560.00
2023-01-17T02:26:50.777Z,96564.00
2023-01-17T02:29:45.906Z,96571.00
2023-01-17T02:32:28.253Z,96581.00
2023-01-17T02:35:23.897Z,96580.00
2023-01-17T02:37:59.039Z,96582.00
2023-01-17T02:41:09.221Z,96594.00
2023-01-17T02:44:17.631Z,96604.00
2023-01-17T02:46:57.426Z,96587.00
2023-01-17T02:49:30.941Z,96600.00
2023-01-17T02:52:35.775Z,96603.00
2023-01-17T02:55:26.771Z,96613.00
2023-01-17T02:58:16.217Z,96612.00
2023-01-17T03:01:09.637Z,96613.00
2023-01-17T03:04:15.464Z,96624.00
2023-01-17T03:06:56.541Z,96621.00
2023-01-17T03:09:25.946Z,96631.00
2023-01-17T03:11:53.762Z,96635.00
2023-01-17T03:14:21.424Z,96636.00
2023-01-17T03:16:48.966Z,96640.00
2023-01-17T03:19:16.733Z,96645.00
2023-01-17T03:21:44.337Z,96648.00
2023-01-17T03:24:11.851Z,96639.00
2023-01-17T03:26:39.299Z,96646.00
2023-01-17T03:29:06.564Z,96654.00
2023-01-17T03:31:33.955Z,96654.00
2023-01-17T03:34:01.527Z,96649.00
2023-01-17T03:36:29.024Z,96657.00
2023-01-17T03:38:56.427Z,96668.00
2023-01-17T03:41:23.847Z,96667.00
2023-01-17T03:43:51.272Z,96661.00
2023-01-17T03:46:26.080Z,96669.00
2023-01-17T03:48:53.570Z,96676.00
2023-01-17T03:51:21.689Z,96676.00
2023-01-17T03:53:50.213Z,96676.00
2023-01-17T03:56:18.238Z,96676.00
2023-01-17T03:58:45.929Z,96678.00
2023-01-17T04:01:13.784Z,96673.00
2023-01-17T04:03:41.547Z,96672.00
2023-01-17T04:06:09.025Z,96667.00
2023-01-17T04:08:36.593Z,96667.00
2023-01-17T04:11:04.537Z,96672.00
2023-01-17T04:13:32.088Z,96683.00
2023-01-17T04:15:59.786Z,96675.00
2023-01-17T04:18:27.405Z,96686.00
2023-01-17T04:20:54.723Z,96675.00
2023-01-17T04:23:22.293Z,96682.00
2023-01-17T04:25:49.845Z,96683.00
2023-01-17T04:28:17.311Z,96685.00
2023-01-17T04:30:44.995Z,96686.00
2023-01-17T04:33:12.674Z,96689.00
2023-01-17T04:35:40.303Z,96692.00
2023-01-17T04:38:26.220Z,96699.00
2023-01-17T04:40:53.717Z,96705.00
2023-01-17T04:43:21.238Z,96701.00
2023-01-17T04:45:48.746Z,96711.00
2023-01-17T04:48:16.125Z,96720.00
2023-01-17T04:50:43.470Z,96723.00
2023-01-17T04:53:10.941Z,96727.00
2023-01-17T04:55:38.344Z,96726.00
2023-01-17T04:58:05.872Z,96736.00
2023-01-17T05:00:33.237Z,96733.00
2023-01-17T05:03:00.938Z,96732.00
2023-01-17T05:05:28.545Z,96732.00
2023-01-17T05:07:57.393Z,96726.00
2023-01-17T05:10:26.010Z,96739.00
2023-01-17T05:12:58.965Z,96743.00
2023-01-17T05:15:27.435Z,96742.00
2023-01-17T05:17:55.756Z,96747.00
2023-01-17T05:20:25.807Z,96757.00
2023-01-17T05:22:55.681Z,96761.00
2023-01-17T05:25:25.541Z,96769.00
2023-01-17T05:27:53.492Z,96762.00
2023-01-17T05:30:22.371Z,96770.00
2023-01-17T05:32:51.699Z,96766.00
2023-01-17T05:35:22.998Z,96772.00
2023-01-17T05:37:51.859Z,96785.00
2023-01-17T05:40:22.244Z,96788.00
2023-01-17T05:42:52.967Z,96797.00
2023-01-17T05:45:22.490Z,96794.00
2023-01-17T05:47:53.213Z,96799.00
2023-01-17T05:50:27.776Z,96810.00
2023-01-17T05:53:05.399Z,96820.00
2023-01-17T05:55:34.062Z,96829.00
2023-01-17T05:58:02.415Z,96826.00
2023-01-17T06:00:31.372Z,96827.00
2023-01-17T06:03:00.996Z,96837.00
2023-01-17T06:05:29.958Z,96835.00
2023-01-17T06:08:00.029Z,96853.00
2023-01-17T06:10:29.239Z,96852.00
2023-01-17T06:13:20.999Z,96860.00
2023-01-17T06:15:48.935Z,96867.00
2023-01-17T06:18:18.053Z,96871.00
2023-01-17T06:20:45.983Z,96882.00
2023-01-17T06:23:15.102Z,96897.00
2023-01-17T06:25:46.049Z,96903.00
2023-01-17T06:28:19.990Z,96909.00
2023-01-17T06:30:47.915Z,96907.00
2023-01-17T06:33:18.669Z,96914.00
2023-01-17T06:35:51.483Z,96919.00
2023-01-17T06:38:19.656Z,96927.00
2023-01-17T06:40:47.284Z,96932.00
2023-01-17T06:43:14.846Z,96942.00
2023-01-17T06:45:42.488Z,96940.00
2023-01-17T06:48:10.176Z,96955.00
2023-01-17T06:50:38.233Z,96951.00
2023-01-17T06:53:07.791Z,96958.00
2023-01-17T06:55:39.679Z,96977.00
2023-01-17T06:58:08.702Z,96980.00
2023-01-17T07:00:38.275Z,96988.00
2023-01-17T07:03:17.842Z,96997.00
2023-01-17T07:05:45.505Z,97003.00
2023-01-17T07:08:13.839Z,97006.00
2023-01-17T07:10:41.738Z,97012.00
2023-01-17T07:13:09.651Z,97013.00
2023-01-17T07:15:37.277Z,97030.00
2023-01-17T07:18:04.990Z,97033.00
2023-01-17T07:20:33.206Z,97039.00
2023-01-17T07:23:00.759Z,97042.00
2023-01-17T07:25:28.242Z,97053.00
2023-01-17T07:27:57.839Z,97054.00
2023-01-17T07:30:27.185Z,97061.00
2023-01-17T07:32:55.520Z,97061.00
2023-01-17T07:35:26.902Z,97066.00
2023-01-17T07:37:55.233Z,97067.00
2023-01-17T07:40:23.114Z,97068.00
2023-01-17T07:42:50.684Z,97070.00
2023-01-17T07:45:18.229Z,97070.00
2023-01-17T07:47:45.799Z,97074.00
2023-01-17T07:50:13.991Z,97064.00
2023-01-17T07:52:41.923Z,97072.00
2023-01-17T07:55:10.354Z,97065.00
2023-01-17T07:57:38.162Z,97071.00
2023-01-17T08:00:06.483Z,97063.00
2023-01-17T08:02:39.718Z,97081.00
2023-01-17T08:05:07.681Z,97084.00
2023-01-17T08:07:35.231Z,97089.00
2023-01-17T08:10:05.817Z,97092.00
2023-01-17T08:12:34.401Z,97095.00
2023-01-17T08:15:01.970Z,97101.00
2023-01-17T08:17:29.410Z,97108.00
2023-01-17T08:19:56.957Z,97110.00
2023-01-17T08:22:24.840Z,97117.00
2023-01-17T08:24:52.273Z,97120.00
2023-01-17T08:27:20.201Z,97125.00
2023-01-17T08:29:48.719Z,97135.00
2023-01-17T08:32:16.755Z,97137.00
2023-01-17T08:34:44.290Z,97136.00
2023-01-17T08:37:11.857Z,97139.00
2023-01-17T08:39:39.636Z,97142.00
2023-01-17T08:42:07.375Z,97148.00
2023-01-17T08:44:35.029Z,97152.00
2023-01-17T08:47:02.522Z,97138.00
2023-01-17T08:49:29.917Z,97145.00
2023-01-17T08:51:57.771Z,97154.00
2023-01-17T08:54:25.192Z,97148.00
2023-01-17T08:56:53.233Z,97156.00
2023-01-17T08:59:21.048Z,97155.00
2023-01-17T09:01:48.609Z,97165.00
2023-01-17T09:04:16.517Z,97167.00
2023-01-17T09:06:46.460Z,97171.00
2023-01-17T09:09:15.898Z,97173.00
2023-01-17T09:11:43.791Z,97176.00
2023-01-17T09:14:13.628Z,97173.00
2023-01-17T09:16:41.095Z,97176.00
2023-01-17T09:19:10.026Z,97175.00
2023-01-17T09:21:37.686Z,97185.00
2023-01-17T09:24:05.699Z,97181.00
2023-01-17T09:26:33.409Z,97183.00
2023-01-17T09:29:01.074Z,97188.00
2023-01-17T09:31:29.081Z,97190.00
2023-01-17T09:33:58.115Z,97199.00
2023-01-17T09:36:29.251Z,97198.00
2023-01-17T09:38:58.868Z,97207.00
2023-01-17T09:42:02.425Z,97209.00
2023-01-17T09:44:52.785Z,97205.00
2023-01-17T09:47:53.134Z,97199.00
2023-01-17T09:50:33.754Z,97197.00
2023-01-17T09:53:28.700Z,97199.00
2023-01-17T09:56:12.814Z,97208.00
2023-01-17T09:59:18.561Z,97210.00
2023-01-17T10:01:46.302Z,97210.00
2023-01-17T10:04:56.479Z,97228.00
2023-01-17T10:08:00.642Z,97230.00
2023-01-17T10:10:44.006Z,97228.00
2023-01-17T10:13:14.266Z,97240.00
2023-01-17T10:15:57.931Z,97244.00
2023-01-17T10:19:31.528Z,97252.00
2023-01-17T10:23:13.079Z,97256.00
2023-01-17T10:25:52.744Z,97257.00
2023-01-17T10:28:51.491Z,97262.00
2023-01-17T10:31:28.250Z,97263.00
2023-01-17T10:34:11.952Z,97267.00
2023-01-17T10:36:48.950Z,97259.00
2023-01-17T10:39:25.332Z,97268.00
2023-01-17T10:42:02.610Z,97263.00
2023-01-17T10:44:52.456Z,97268.00
2023-01-17T10:47:24.852Z,97265.00
2023-01-17T10:49:54.654Z,97257.00
2023-01-17T10:53:04.560Z,97253.00
2023-01-17T10:55:56.308Z,97255.00
2023-01-17T10:58:25.525Z,97259.00
2023-01-17T11:01:12.454Z,97247.00
2023-01-17T11:03:40.329Z,97244.00
2023-01-17T11:06:26.245Z,97244.00
2023-01-17T11:08:59.831Z,97241.00
2023-01-17T11:11:35.831Z,97243.00
2023-01-17T11:14:20.243Z,97240.00
2023-01-17T11:17:01.523Z,97244.00
2023-01-17T11:19:36.482Z,97244.00
2023-01-17T11:22:07.127Z,97243.00
2023-01-17T11:24:41.900Z,97255.00
2023-01-17T11:27:29.472Z,97252.00
2023-01-17T11:30:26.413Z,97258.00
2023-01-17T11:33:07.282Z,97246.00
2023-01-17T11:35:45.801Z,97249.00
2023-01-17T11:38:22.012Z,97252.00
2023-01-17T11:40:50.799Z,97257.00
2023-01-17T11:43:25.108Z,97257.00
2023-01-17T11:46:20.714Z,97249.00
2023-01-17T11:48:59.760Z,97260.00
2023-01-17T11:51:42.402Z,97260.00
2023-01-17T11:54:39.646Z,97264.00
2023-01-17T11:57:25.500Z,97270.00
2023-01-17T12:00:31.284Z,97269.00
2023-01-17T12:03:15.553Z,97277.00
2023-01-17T12:05:53.743Z,97276.00
2023-01-17T12:08:51.646Z,97281.00
2023-01-17T12:12:30.449Z,97277.00
2023-01-17T12:15:03.048Z,97282.00
2023-01-17T12:18:11.396Z,97267.00
2023-01-17T12:21:30.474Z,97282.00
2023-01-17T12:24:55.883Z,97279.00
2023-01-17T12:28:00.116Z,97281.00
2023-01-17T12:30:58.825Z,97280.00
2023-01-17T12:33:47.930Z,97280.00
2023-01-17T12:36:40.023Z,97285.00
2023-01-17T12:39:12.117Z,97286.00
2023-01-17T12:42:00.089Z,97290.00
2023-01-17T12:44:45.702Z,97289.00
2023-01-17T12:47:16.957Z,97299.00
2023-01-17T12:50:12.132Z,97294.00
2023-01-17T12:52:48.779Z,97304.00
2023-01-17T12:56:12.903Z,97301.00
2023-01-17T12:58:45.632Z,97315.00
2023-01-17T13:01:57.858Z,97313.00
2023-01-17T13:04:58.832Z,97308.00
2023-01-17T13:07:33.330Z,97316.00
2023-01-17T13:10:35.565Z,97318.00
2023-01-17T13:13:22.549Z,97320.00
2023-01-17T13:15:57.467Z,97326.00
2023-01-17T13:18:29.932Z,97324.00
2023-01-17T13:21:30.177Z,97333.00
2023-01-17T13:24:03.715Z,97343.00
2023-01-17T13:26:55.732Z,97347.00
2023-01-17T13:30:32.716Z,97347.00
2023-01-17T13:33:47.355Z,97354.00
2023-01-17T13:36:42.513Z,97356.00
2023-01-17T13:39:12.557Z,97349.00
2023-01-17T13:41:45.782Z,97354.00
2023-01-17T13:44:24.817Z,97361.00
2023-01-17T13:47:27.797Z,97362.00
2023-01-17T13:49:58.569Z,97375.00
2023-01-17T13:52:28.375Z,97366.00
2023-01-17T13:55:01.327Z,97372.00
2023-01-17T13:57:42.196Z,97370.00
2023-01-17T14:00:24.430Z,97366.00
2023-01-17T14:02:55.438Z,97374.00
2023-01-17T14:05:31.828Z,97372.00
2023-01-17T14:08:02.491Z,97371.00
2023-01-17T14:11:09.783Z,97368.00
2023-01-17T14:13:40.736Z,97366.00
2023-01-17T14:16:29.371Z,97382.00
2023-01-17T14:18:57.223Z,97372.00
2023-01-17T14:21:35.693Z,97376.00
2023-01-17T14:24:17.572Z,97376.00
2023-01-17T14:27:12.649Z,97382.00
2023-01-17T14:29:49.781Z,97379.00
2023-01-17T14:32:22.461Z,97387.00
2023-01-17T14:34:52.507Z,97391.00
2023-01-17T14:37:47.883Z,97396.00
2023-01-17T14:40:26.608Z,97391.00
2023-01-17T14:43:17.816Z,97385.00
2023-01-17T14:45:45.434Z,97387.00
2023-01-17T14:48:19.287Z,97392.00
2023-01-17T14:50:49.649Z,97393.00
2023-01-17T14:53:23.199Z,97391.00
2023-01-17T14:55:57.820Z,97398.00
2023-01-17T14:58:32.022Z,97404.00
2023-01-17T15:01:12.948Z,97405.00
2023-01-17T15:03:57.440Z,97403.00
2023-01-17T15:06:42.018Z,97417.00
2023-01-17T15:09:20.159Z,97418.00
2023-01-17T15:11:50.279Z,97414.00
2023-01-17T15:14:28.131Z,97419.00
2023-01-17T15:16:55.855Z,97415.00
2023-01-17T15:19:23.519Z,97417.00
2023-01-17T15:21:54.140Z,97417.00
2023-01-17T15:24:29.635Z,97418.00
2023-01-17T15:26:57.183Z,97430.00
2023-01-17T15:29:32.497Z,97435.00
2023-01-17T15:32:03.238Z,97436.00
2023-01-17T15:34:45.715Z,97440.00
2023-01-17T15:37:35.979Z,97442.00
2023-01-17T15:40:06.355Z,97440.00
2023-01-17T15:42:36.766Z,97434.00
2023-01-17T15:45:09.654Z,97428.00
2023-01-17T15:47:39.303Z,97434.00
2023-01-17T15:50:31.264Z,97429.00
2023-01-17T15:53:04.998Z,97424.00
2023-01-17T15:55:40.188Z,97425.00
2023-01-17T15:58:27.930Z,97427.00
2023-01-17T16:00:56.411Z,97428.00
2023-01-17T16:03:29.476Z,97434.00
2023-01-17T16:06:00.447Z,97440.00
2023-01-17T16:08:40.051Z,97437.00
2023-01-17T16:11:11.881Z,97438.00
2023-01-17T16:13:44.569Z,97444.00
2023-01-17T16:16:14.675Z,97454.00
2023-01-17T16:18:46.652Z,97445.00
2023-01-17T16:21:27.499Z,97450.00
2023-01-17T16:23:55.599Z,97450.00
2023-01-17T16:26:24.207Z,97449.00
2023-01-17T16:28:52.214Z,97445.00
2023-01-17T16:31:19.978Z,97446.00
2023-01-17T16:33:50.785Z,97442.00
2023-01-17T16:36:19.770Z,97453.00
2023-01-17T16:38:51.455Z,97442.00
2023-01-17T16:41:25.589Z,97442.00
2023-01-17T16:44:05.654Z,97445.00
2023-01-17T16:46:35.105Z,97446.00
2023-01-17T16:49:02.948Z,97444.00
2023-01-17T16:51:31.525Z,97453.00
2023-01-17T16:53:59.795Z,97453.00
2023-01-17T16:56:27.566Z,97458.00
2023-01-17T16:58:55.023Z,97458.00
2023-01-17T17:01:23.105Z,97459.00
2023-01-17T17:03:51.112Z,97464.00
2023-01-17T17:06:18.663Z,97462.00
2023-01-17T17:08:46.252Z,97472.00
2023-01-17T17:11:24.267Z,97466.00
2023-01-17T17:13:52.834Z,97465.00
2023-01-17T17:16:26.666Z,97462.00
2023-01-17T17:19:06.407Z,97463.00
2023-01-17T17:21:37.030Z,97467.00
2023-01-17T17:24:05.313Z,97466.00
2023-01-17T17:26:36.274Z,97483.00
2023-01-17T17:29:05.339Z,97471.00
2023-01-17T17:31:33.371Z,97470.00
2023-01-17T17:34:02.952Z,97466.00
2023-01-17T17:36:31.014Z,97465.00
2023-01-17T17:38:58.821Z,97467.00
2023-01-17T17:41:29.878Z,97459.00
2023-01-17T17:43:57.807Z,97469.00
2023-01-17T17:46:27.494Z,97469.00
2023-01-17T17:48:56.094Z,97472.00
2023-01-17T17:51:37.938Z,97485.00
2023-01-17T17:54:09.789Z,97482.00
2023-01-17T17:56:38.825Z,97484.00
2023-01-17T17:59:09.397Z,97495.00
2023-01-17T18:01:41.207Z,97496.00
2023-01-17T18:04:09.597Z,97503.00
2023-01-17T18:06:38.673Z,97511.00
2023-01-17T18:09:08.731Z,97516.00
2023-01-17T18:11:38.443Z,97517.00
2023-01-17T18:14:11.605Z,97522.00
2023-01-17T18:16:43.309Z,97513.00
2023-01-17T18:19:18.457Z,97515.00
2023-01-17T18:21:46.190Z,97517.00
2023-01-17T18:24:16.869Z,97505.00
2023-01-17T18:26:59.231Z,97517.00
2023-01-17T18:29:27.828Z,97524.00
2023-01-17T18:31:56.229Z,97517.00
2023-01-17T18:34:29.482Z,97513.00
2023-01-17T18:36:58.442Z,97521.00
2023-01-17T18:39:29.398Z,97515.00
2023-01-17T18:41:57.699Z,97510.00
2023-01-17T18:44:25.447Z,97503.00
2023-01-17T18:46:59.608Z,97505.00
2023-01-17T18:49:27.242Z,97512.00
2023-01-17T18:51:54.687Z,97509.00
2023-01-17T18:54:22.493Z,97500.00
2023-01-17T18:56:51.247Z,97499.00
2023-01-17T18:59:18.944Z,97503.00
2023-01-17T19:01:46.887Z,97518.00
2023-01-17T19:04:16.413Z,97521.00
2023-01-17T19:06:47.682Z,97520.00
2023-01-17T19:09:17.167Z,97526.00
2023-01-17T19:11:46.386Z,97530.00
2023-01-17T19:14:14.603Z,97529.00
2023-01-17T19:16:43.233Z,97536.00
2023-01-17T19:19:14.952Z,97539.00
2023-01-17T19:21:42.941Z,97533.00
2023-01-17T19:24:13.362Z,97536.00
2023-01-17T19:26:41.960Z,97540.00
2023-01-17T19:29:09.500Z,97547.00
2023-01-17T19:31:48.511Z,97545.00
2023-01-17T19:34:19.063Z,97564.00
2023-01-17T19:36:47.390Z,97564.00
2023-01-17T19:39:14.920Z,97561.00
2023-01-17T19:41:45.634Z,97566.00
2023-01-17T19:44:15.321Z,97574.00
2023-01-17T19:46:44.196Z,97581.00
2023-01-17T19:49:16.468Z,97583.00
2023-01-17T19:51:46.849Z,97579.00
2023-01-17T19:54:15.851Z,97582.00
2023-01-17T19:56:43.571Z,97591.00
2023-01-17T19:59:14.083Z,97582.00
2023-01-17T20:01:41.862Z,97579.00
2023-01-17T20:04:09.942Z,97580.00
2023-01-17T20:06:37.488Z,97595.00
2023-01-17T20:09:07.035Z,97598.00
2023-01-17T20:11:34.788Z,97600.00
2023-01-17T20:14:05.793Z,97606.00
2023-01-17T20:16:37.792Z,97601.00
2023-01-17T20:19:05.772Z,97594.00
2023-01-17T20:21:33.144Z,97601.00
2023-01-17T20:24:03.521Z,97587.00
2023-01-17T20:26:35.194Z,97591.00
2023-01-17T20:29:15.091Z,97593.00
2023-01-17T20:31:44.888Z,97590.00
2023-01-17T20:34:14.697Z,97589.00
2023-01-17T20:36:42.829Z,97588.00
2023-01-17T20:39:13.865Z,97580.00
2023-01-17T20:41:43.886Z,97590.00
2023-01-17T20:44:15.615Z,97585.00
2023-01-17T20:46:44.131Z,97604.00
2023-01-17T20:49:15.811Z,97600.00
2023-01-17T20:51:44.605Z,97600.00
2023-01-17T20:54:18.563Z,97604.00
2023-01-17T20:56:47.702Z,97602.00
2023-01-17T20:59:22.461Z,97609.00
2023-01-17T21:01:50.958Z,97610.00
2023-01-17T21:04:24.972Z,97617.00
2023-01-17T21:06:53.476Z,97621.00
2023-01-17T21:09:23.599Z,97616.00
2023-01-17T21:11:51.988Z,97618.00
2023-01-17T21:14:19.507Z,97619.00
2023-01-17T21:16:46.893Z,97631.00
2023-01-17T21:19:15.334Z,97643.00
2023-01-17T21:21:42.950Z,97635.00
2023-01-17T21:24:16.381Z,97642.00
2023-01-17T21:26:45.645Z,97648.00
2023-01-17T21:29:16.205Z,97657.00
2023-01-17T21:31:46.970Z,97662.00
2023-01-17T21:34:14.344Z,97673.00
2023-01-17T21:36:46.302Z,97674.00
2023-01-17T21:39:18.155Z,97678.00
2023-01-17T21:41:49.659Z,97674.00
2023-01-17T21:44:23.124Z,97682.00
2023-01-17T21:46:56.388Z,97680.00
2023-01-17T21:49:24.318Z,97683.00
2023-01-17T21:51:54.641Z,97687.00
2023-01-17T21:54:46.482Z,97688.00
2023-01-17T21:57:38.210Z,97691.00
2023-01-17T22:00:14.757Z,97693.00
2023-01-17T22:02:47.775Z,97699.00
2023-01-17T22:05:19.489Z,97691.00
2023-01-17T22:08:05.595Z,97701.00
2023-01-17T22:10:44.786Z,97697.00
2023-01-17T22:13:18.304Z,97695.00
2023-01-17T22:15:46.218Z,97699.00
2023-01-17T22:18:15.537Z,97704.00
2023-01-17T22:20:43.621Z,97717.00
2023-01-17T22:23:12.018Z,97721.00
2023-01-17T22:25:39.496Z,97721.00
2023-01-17T22:28:06.846Z,97720.00
2023-01-17T22:30:34.631Z,97722.00
2023-01-17T22:33:02.076Z,97730.00
2023-01-17T22:35:29.490Z,97733.00
2023-01-17T22:37:56.807Z,97737.00
2023-01-17T22:40:24.521Z,97729.00
2023-01-17T22:42:52.156Z,97722.00
2023-01-17T22:45:20.371Z,97730.00
2023-01-17T22:47:48.022Z,97727.00
2023-01-17T22:50:15.543Z,97727.00
2023-01-17T22:52:43.013Z,97716.00
2023-01-17T22:55:12.376Z,97712.00
2023-01-17T22:57:40.033Z,97722.00
2023-01-17T23:00:14.719Z,97710.00
2023-01-17T23:02:42.919Z,97706.00
2023-01-17T23:05:11.005Z,97704.00
2023-01-17T23:07:44.943Z,97697.00
2023-01-17T23:10:34.524Z,97699.00
2023-01-17T23:13:01.961Z,97700.00
2023-01-17T23:15:47.850Z,97698.00
2023-01-17T23:18:33.974Z,97705.00
2023-01-17T23:21:01.615Z,97703.00
2023-01-17T23:23:29.195Z,97699.00
2023-01-17T23:26:01.409Z,97707.00
2023-01-17T23:28:28.985Z,97704.00
2023-01-17T23:31:03.295Z,97702.00
2023-01-17T23:33:30.700Z,97695.00
2023-01-17T23:35:58.286Z,97699.00
2023-01-17T23:38:34.155Z,97691.00
2023-01-17T23:41:26.274Z,97690.00
2023-01-17T23:43:56.575Z,97690.00
2023-01-17T23:46:26.785Z,97690.00
2023-01-17T23:48:55.338Z,97690.00
2023-01-17T23:51:23.177Z,97694.00
2023-01-17T23:53:55.387Z,97690.00
2023-01-17T23:56:24.957Z,97683.00
2023-01-17T23:58:52.380Z,97676.00
